createdAt,value
2022-09-15T00:02:22.086Z,29.40
2022-09-15T00:07:28.068Z,29.50
2022-09-15T00:12:34.195Z,29.70
2022-09-15T00:17:39.617Z,29.90
2022-09-15T00:22:45.671Z,30.10
2022-09-15T00:27:51.354Z,30.30
2022-09-15T00:32:57.521Z,30.50
2022-09-15T00:38:03.351Z,30.80
2022-09-15T00:43:12.758Z,31.10
2022-09-15T00:48:23.287Z,30.80
2022-09-15T00:53:29.652Z,30.70
2022-09-15T00:58:45.787Z,30.90
2022-09-15T01:03:51.365Z,31.40
2022-09-15T01:09:15.454Z,31.90
2022-09-15T01:14:21.591Z,32.10
2022-09-15T01:19:53.790Z,31.70
2022-09-15T01:25:17.307Z,31.50
2022-09-15T01:30:24.611Z,31.60
2022-09-15T01:35:53.895Z,31.90
2022-09-15T01:41:14.287Z,32.50
2022-09-15T01:46:25.581Z,32.80
2022-09-15T01:51:33.431Z,33.20
2022-09-15T01:56:41.608Z,33.30
2022-09-15T02:02:00.478Z,33.60
2022-09-15T02:07:16.265Z,33.90
2022-09-15T02:12:52.877Z,34.00
2022-09-15T02:18:00.935Z,34.40
2022-09-15T02:23:23.330Z,33.90
2022-09-15T02:28:36.012Z,34.20
2022-09-15T02:34:01.230Z,34.70
2022-09-15T02:39:13.461Z,35.10
2022-09-15T02:44:19.301Z,35.30
2022-09-15T02:49:24.952Z,35.40
2022-09-15T02:54:31.067Z,35.10
2022-09-15T02:59:54.744Z,34.70
2022-09-15T03:05:00.533Z,34.70
2022-09-15T03:10:07.420Z,34.60
2022-09-15T03:15:14.980Z,34.80
2022-09-15T03:20:24.322Z,34.40
2022-09-15T03:25:31.453Z,34.10
2022-09-15T03:30:37.603Z,34.40
2022-09-15T03:35:43.661Z,35.00
2022-09-15T03:41:03.413Z,35.10
2022-09-15T03:46:10.799Z,34.60
2022-09-15T03:51:16.785Z,34.60
2022-09-15T03:56:33.019Z,34.30
2022-09-15T04:01:38.745Z,34.60
2022-09-15T04:06:44.660Z,35.10
2022-09-15T04:11:51.744Z,35.50
2022-09-15T04:16:57.617Z,35.70
2022-09-15T04:22:03.380Z,35.90
2022-09-15T04:27:08.946Z,35.70
2022-09-15T04:32:14.723Z,36.20
2022-09-15T04:37:20.632Z,37.80
2022-09-15T04:42:26.447Z,38.40
2022-09-15T04:47:32.640Z,39.30
2022-09-15T04:52:38.594Z,39.70
2022-09-15T04:57:44.705Z,39.90
2022-09-15T05:02:50.731Z,40.70
2022-09-15T05:08:04.381Z,40.90
2022-09-15T05:13:10.430Z,41.70
2022-09-15T05:18:15.976Z,42.20
2022-09-15T05:23:23.575Z,42.20
2022-09-15T05:28:32.035Z,42.80
2022-09-15T05:33:37.946Z,40.20
2022-09-15T05:38:44.213Z,40.00
2022-09-15T05:43:51.005Z,38.80
2022-09-15T05:48:58.287Z,39.00
2022-09-15T05:54:04.062Z,41.10
2022-09-15T05:59:09.617Z,42.20
2022-09-15T06:04:14.789Z,43.30
2022-09-15T06:09:20.511Z,44.20
2022-09-15T06:14:26.889Z,44.00
2022-09-15T06:19:35.061Z,42.70
2022-09-15T06:24:40.415Z,42.70
2022-09-15T06:29:46.953Z,41.70
2022-09-15T06:34:56.896Z,40.20
2022-09-15T06:40:09.428Z,38.70
2022-09-15T06:45:18.641Z,38.00
2022-09-15T06:50:24.104Z,37.50
2022-09-15T06:55:30.793Z,37.70
2022-09-15T07:00:36.297Z,38.60
2022-09-15T07:05:42.375Z,40.20
2022-09-15T07:10:48.469Z,40.80
2022-09-15T07:16:02.898Z,41.20
2022-09-15T07:21:11.208Z,39.80
2022-09-15T07:26:28.568Z,38.20
2022-09-15T07:31:37.419Z,37.10
2022-09-15T07:36:55.505Z,36.70
2022-09-15T07:42:01.698Z,36.50
2022-09-15T07:47:06.916Z,36.30
2022-09-15T07:52:15.193Z,35.90
2022-09-15T07:57:20.577Z,35.10
2022-09-15T08:02:26.192Z,34.90
2022-09-15T08:07:32.087Z,34.90
2022-09-15T08:12:37.741Z,34.60
2022-09-15T08:17:43.237Z,34.50
2022-09-15T08:22:49.577Z,34.90
2022-09-15T08:27:59.984Z,35.20
2022-09-15T08:33:05.505Z,35.90
2022-09-15T08:38:13.256Z,36.40
2022-09-15T08:43:25.599Z,36.60
2022-09-15T08:48:38.247Z,36.40
2022-09-15T08:53:48.676Z,36.20
2022-09-15T08:58:54.210Z,35.80
2022-09-15T09:04:23.736Z,35.40
2022-09-15T09:09:29.455Z,34.90
2022-09-15T09:20:20.308Z,33.70
2022-09-15T09:25:28.016Z,33.20
2022-09-15T09:30:37.985Z,32.70
2022-09-15T09:35:55.819Z,32.00
2022-09-15T09:41:02.528Z,31.50
2022-09-15T09:46:19.669Z,31.20
2022-09-15T09:51:35.845Z,31.10
2022-09-15T09:56:43.285Z,31.20
2022-09-15T10:02:08.885Z,31.20
2022-09-15T10:07:15.470Z,31.30
2022-09-15T10:12:32.176Z,31.30
2022-09-15T10:17:45.967Z,31.40
2022-09-15T10:22:51.878Z,31.40
2022-09-15T10:28:25.461Z,31.40
2022-09-15T10:33:34.004Z,31.30
2022-09-15T10:38:50.900Z,31.20
2022-09-15T10:43:59.807Z,30.60
2022-09-15T10:49:36.052Z,30.30
2022-09-15T10:55:11.676Z,30.10
2022-09-15T11:00:24.562Z,30.00
2022-09-15T11:06:11.805Z,30.00
2022-09-15T11:11:19.886Z,30.10
2022-09-15T11:16:48.665Z,30.00
2022-09-15T11:22:27.478Z,29.90
2022-09-15T11:28:18.412Z,29.90
2022-09-15T11:34:00.778Z,29.90
2022-09-15T11:39:31.218Z,29.70
2022-09-15T11:44:43.567Z,29.50
2022-09-15T11:50:28.194Z,29.40
2022-09-15T11:55:41.128Z,29.20
2022-09-15T12:01:01.722Z,28.80
2022-09-15T12:06:45.372Z,28.70
2022-09-15T12:11:58.344Z,28.70
2022-09-15T12:17:06.181Z,28.80
2022-09-15T12:22:21.297Z,28.80
2022-09-15T12:27:26.751Z,28.80
2022-09-15T12:32:36.494Z,28.80
2022-09-15T12:38:03.856Z,28.80
2022-09-15T12:43:15.293Z,28.80
2022-09-15T12:48:29.694Z,28.70
2022-09-15T12:53:40.192Z,28.70
2022-09-15T12:58:52.431Z,28.60
2022-09-15T13:04:02.459Z,28.70
2022-09-15T13:09:08.142Z,28.80
2022-09-15T13:14:26.448Z,28.80
2022-09-15T13:19:37.645Z,28.70
2022-09-15T13:25:06.857Z,28.70
2022-09-15T13:30:42.538Z,28.70
2022-09-15T13:35:54.481Z,28.70
2022-09-15T13:41:27.395Z,28.80
2022-09-15T13:46:57.973Z,28.70
2022-09-15T13:52:23.728Z,28.70
2022-09-15T14:03:11.250Z,28.90
2022-09-15T14:08:23.031Z,28.80
2022-09-15T14:13:31.271Z,28.90
2022-09-15T14:18:46.609Z,28.80
2022-09-15T14:23:57.143Z,28.90
2022-09-15T14:29:08.480Z,28.90
2022-09-15T14:34:26.723Z,29.00
2022-09-15T14:39:33.102Z,28.90
2022-09-15T14:50:11.215Z,28.70
2022-09-15T14:55:29.716Z,28.60
2022-09-15T15:01:18.615Z,28.60
2022-09-15T15:06:39.772Z,28.60
2022-09-15T15:11:45.472Z,28.60
2022-09-15T15:16:59.615Z,28.60
2022-09-15T15:22:25.996Z,28.60
2022-09-15T15:27:37.626Z,28.60
2022-09-15T15:32:45.357Z,28.50
2022-09-15T15:37:51.610Z,28.60
2022-09-15T15:43:02.458Z,28.60
2022-09-15T15:48:10.422Z,28.60
2022-09-15T15:53:15.847Z,28.70
2022-09-15T15:58:23.568Z,28.70
2022-09-15T16:03:29.075Z,28.60
2022-09-15T16:08:41.523Z,28.60
2022-09-15T16:13:46.942Z,28.60
2022-09-15T16:18:51.844Z,28.60
2022-09-15T16:23:57.378Z,28.60
2022-09-15T16:29:02.508Z,28.60
2022-09-15T16:34:07.839Z,28.50
2022-09-15T16:39:12.711Z,28.50
2022-09-15T16:44:21.964Z,28.40
2022-09-15T16:49:27.465Z,28.40
2022-09-15T16:54:32.790Z,28.40
2022-09-15T16:59:37.628Z,28.40
2022-09-15T17:04:42.891Z,28.30
2022-09-15T17:09:48.446Z,28.40
2022-09-15T17:14:53.713Z,28.30
2022-09-15T17:19:59.343Z,28.30
2022-09-15T17:25:06.862Z,28.30
2022-09-15T17:30:12.609Z,28.30
2022-09-15T17:35:27.562Z,28.40
2022-09-15T17:40:33.772Z,28.40
2022-09-15T17:45:39.359Z,28.40
2022-09-15T17:50:46.475Z,28.40
2022-09-15T17:55:56.265Z,28.30
2022-09-15T18:01:02.117Z,28.30
2022-09-15T18:06:11.884Z,28.30
2022-09-15T18:11:17.011Z,28.30
2022-09-15T18:16:22.363Z,28.20
2022-09-15T18:21:29.989Z,28.10
2022-09-15T18:26:35.289Z,28.10
2022-09-15T18:31:39.827Z,28.10
2022-09-15T18:36:44.862Z,28.10
2022-09-15T18:41:51.329Z,28.00
2022-09-15T18:46:56.571Z,28.00
2022-09-15T18:52:03.885Z,28.10
2022-09-15T18:57:09.191Z,28.10
2022-09-15T19:02:15.830Z,28.10
2022-09-15T19:07:23.099Z,28.10
2022-09-15T19:12:30.159Z,28.00
2022-09-15T19:17:35.283Z,28.00
2022-09-15T19:22:41.377Z,28.00
2022-09-15T19:27:46.605Z,27.90
2022-09-15T19:32:51.716Z,27.90
2022-09-15T19:37:57.292Z,27.80
2022-09-15T19:43:02.279Z,27.80
2022-09-15T19:48:07.620Z,27.80
2022-09-15T19:53:12.069Z,27.80
2022-09-15T19:58:17.017Z,27.70
2022-09-15T20:03:22.973Z,27.70
2022-09-15T20:08:28.274Z,27.70
2022-09-15T20:13:33.135Z,27.80
2022-09-15T20:18:42.631Z,27.80
2022-09-15T20:23:48.685Z,27.70
2022-09-15T20:28:54.830Z,27.70
2022-09-15T20:33:59.836Z,27.70
2022-09-15T20:39:06.986Z,27.70
2022-09-15T20:44:12.316Z,27.70
2022-09-15T20:49:17.519Z,27.60
2022-09-15T20:54:22.584Z,27.60
2022-09-15T20:59:27.648Z,27.60
2022-09-15T21:04:33.694Z,27.60
2022-09-15T21:09:38.691Z,27.50
2022-09-15T21:14:44.339Z,27.50
2022-09-15T21:19:49.669Z,27.50
2022-09-15T21:24:54.239Z,27.50
2022-09-15T21:29:59.812Z,27.50
2022-09-15T21:35:04.890Z,27.40
2022-09-15T21:40:11.142Z,27.50
2022-09-15T21:45:16.573Z,27.40
2022-09-15T21:50:21.064Z,27.40
2022-09-15T21:55:27.165Z,27.50
2022-09-15T22:00:32.373Z,27.40
2022-09-15T22:05:37.601Z,27.40
2022-09-15T22:11:01.604Z,27.50
2022-09-15T22:16:13.319Z,27.40
2022-09-15T22:21:24.522Z,27.40
2022-09-15T22:26:32.335Z,27.40
2022-09-15T22:31:38.484Z,27.40
2022-09-15T22:36:43.901Z,27.40
2022-09-15T22:41:48.639Z,27.30
2022-09-15T22:46:54.244Z,27.30
2022-09-15T22:51:59.882Z,27.30
2022-09-15T22:57:05.664Z,27.40
2022-09-15T23:02:11.385Z,27.40
2022-09-15T23:07:17.249Z,27.50
2022-09-15T23:12:22.515Z,27.60
2022-09-15T23:17:28.811Z,27.80
2022-09-15T23:22:34.459Z,28.10
2022-09-15T23:27:39.755Z,28.20
2022-09-15T23:32:45.068Z,28.30
2022-09-15T23:37:54.494Z,28.40
2022-09-15T23:42:59.805Z,28.50
2022-09-15T23:48:09.717Z,28.60
2022-09-15T23:53:15.559Z,29.10
2022-09-15T23:58:20.847Z,29.40
